createdAt,value
2022-09-16T00:00:57.367Z,1.10
2022-09-16T00:03:25.399Z,1.10
2022-09-16T00:05:54.300Z,1.20
2022-09-16T00:08:22.845Z,1.05
2022-09-16T00:10:51.154Z,1.15
2022-09-16T00:13:19.240Z,1.15
2022-09-16T00:15:50.636Z,1.00
2022-09-16T00:18:21.323Z,1.05
2022-09-16T00:20:51.372Z,1.30
2022-09-16T00:23:20.636Z,1.10
2022-09-16T00:25:52.388Z,1.20
2022-09-16T00:28:21.554Z,1.20
2022-09-16T00:30:49.134Z,1.25
2022-09-16T00:33:17.526Z,1.27
2022-09-16T00:35:46.846Z,1.13
2022-09-16T00:38:14.876Z,1.00
2022-09-16T00:40:46.825Z,1.00
2022-09-16T00:45:44.604Z,1.10
2022-09-16T00:48:17.775Z,1.02
2022-09-16T00:50:49.238Z,1.25
2022-09-16T00:53:21.531Z,1.10
2022-09-16T00:55:52.289Z,1.20
2022-09-16T00:58:24.621Z,1.25
2022-09-16T01:00:52.486Z,1.30
2022-09-16T01:03:20.846Z,1.27
2022-09-16T01:05:50.806Z,1.50
2022-09-16T01:08:18.406Z,1.55
2022-09-16T01:10:45.980Z,1.42
2022-09-16T01:13:15.901Z,2.30
2022-09-16T01:15:50.086Z,1.38
2022-09-16T01:18:27.942Z,1.33
2022-09-16T01:21:15.772Z,1.40
2022-09-16T01:24:20.990Z,1.40
2022-09-16T01:27:45.437Z,1.50
2022-09-16T01:30:52.407Z,1.38
2022-09-16T01:33:32.527Z,1.40
2022-09-16T01:36:25.429Z,2.10
2022-09-16T01:39:07.992Z,1.50
2022-09-16T01:41:48.593Z,1.40
2022-09-16T01:44:26.743Z,2.30
2022-09-16T01:47:03.475Z,1.50
2022-09-16T01:49:40.319Z,1.50
2022-09-16T01:52:19.381Z,1.35
2022-09-16T01:54:53.858Z,1.60
2022-09-16T01:57:28.352Z,1.30
2022-09-16T02:00:01.656Z,1.48
2022-09-16T02:02:59.840Z,1.52
2022-09-16T02:05:33.284Z,1.48
2022-09-16T02:08:04.568Z,1.65
2022-09-16T02:10:36.409Z,1.40
2022-09-16T02:13:11.215Z,1.67
2022-09-16T02:15:46.797Z,1.63
2022-09-16T02:18:25.052Z,1.33
2022-09-16T02:20:55.921Z,1.30
2022-09-16T02:23:26.520Z,1.40
2022-09-16T02:25:56.434Z,1.25
2022-09-16T02:28:30.506Z,1.40
2022-09-16T02:31:01.400Z,1.33
2022-09-16T02:33:34.369Z,1.20
2022-09-16T02:36:04.369Z,1.52
2022-09-16T02:38:38.876Z,1.35
2022-09-16T02:41:06.930Z,1.40
2022-09-16T02:43:34.584Z,1.30
2022-09-16T02:46:10.109Z,1.30
2022-09-16T02:48:51.780Z,1.50
2022-09-16T02:51:30.506Z,1.58
2022-09-16T02:54:02.499Z,1.55
2022-09-16T02:59:00.096Z,1.50
2022-09-16T03:01:29.518Z,1.20
2022-09-16T03:03:58.672Z,1.48
2022-09-16T03:06:28.924Z,1.63
2022-09-16T03:09:00.805Z,1.58
2022-09-16T03:11:50.362Z,1.83
2022-09-16T03:14:43.737Z,1.83
2022-09-16T03:17:26.378Z,1.80
2022-09-16T03:20:05.256Z,1.70
2022-09-16T03:22:44.974Z,1.88
2022-09-16T03:25:23.564Z,1.70
2022-09-16T03:27:53.617Z,1.85
2022-09-16T03:30:21.480Z,1.70
2022-09-16T03:32:54.004Z,1.90
2022-09-16T03:35:28.350Z,2.05
2022-09-16T03:37:58.268Z,1.63
2022-09-16T03:40:29.501Z,1.90
2022-09-16T03:42:58.807Z,2.40
2022-09-16T03:45:26.841Z,1.88
2022-09-16T03:47:54.731Z,1.73
2022-09-16T03:50:23.690Z,1.85
2022-09-16T03:52:51.348Z,2.17
2022-09-16T03:55:19.056Z,2.05
2022-09-16T03:57:46.629Z,1.90
2022-09-16T04:00:15.962Z,1.80
2022-09-16T04:02:44.357Z,2.08
2022-09-16T04:05:12.040Z,1.83
2022-09-16T04:07:41.254Z,1.70
2022-09-16T04:10:12.195Z,1.80
2022-09-16T04:12:39.826Z,1.70
2022-09-16T04:15:08.520Z,1.88
2022-09-16T04:17:36.260Z,1.80
2022-09-16T04:20:05.121Z,1.60
2022-09-16T04:22:32.727Z,2.00
2022-09-16T04:25:01.653Z,1.60
2022-09-16T04:27:29.222Z,1.90
2022-09-16T04:29:56.920Z,1.80
2022-09-16T04:32:24.611Z,2.10
2022-09-16T04:34:52.382Z,1.80
2022-09-16T04:37:19.936Z,1.80
2022-09-16T04:39:47.612Z,1.70
2022-09-16T04:42:16.477Z,1.90
2022-09-16T04:44:44.736Z,1.88
2022-09-16T04:47:12.710Z,2.08
2022-09-16T04:49:40.333Z,2.25
2022-09-16T04:52:08.064Z,1.85
2022-09-16T04:54:35.770Z,1.80
2022-09-16T04:57:03.355Z,1.73
2022-09-16T04:59:32.241Z,2.00
2022-09-16T05:02:00.290Z,2.10
2022-09-16T05:04:27.902Z,1.73
2022-09-16T05:06:55.524Z,1.73
2022-09-16T05:09:23.331Z,1.83
2022-09-16T05:11:51.200Z,1.92
2022-09-16T05:14:19.364Z,1.67
2022-09-16T05:16:48.315Z,1.70
2022-09-16T05:19:16.341Z,1.60
2022-09-16T05:21:44.053Z,1.60
2022-09-16T05:24:13.354Z,1.88
2022-09-16T05:26:43.064Z,1.50
2022-09-16T05:29:13.036Z,1.83
2022-09-16T05:31:42.431Z,1.50
2022-09-16T05:34:15.314Z,1.60
2022-09-16T05:36:44.187Z,1.60
2022-09-16T05:39:28.184Z,1.30
2022-09-16T05:41:58.111Z,1.38
2022-09-16T05:44:27.128Z,1.38
2022-09-16T05:46:55.113Z,1.23
2022-09-16T05:49:24.497Z,1.90
2022-09-16T05:51:53.016Z,1.33
2022-09-16T05:54:23.642Z,1.30
2022-09-16T05:56:51.960Z,1.40
2022-09-16T05:59:19.806Z,1.38
2022-09-16T06:01:47.598Z,1.27
2022-09-16T06:04:16.509Z,1.73
2022-09-16T06:06:47.804Z,1.65
2022-09-16T06:09:17.856Z,1.67
2022-09-16T06:11:48.202Z,1.60
2022-09-16T06:14:17.067Z,1.40
2022-09-16T06:16:45.397Z,1.30
2022-09-16T06:19:15.069Z,1.23
2022-09-16T06:21:45.808Z,1.40
2022-09-16T06:24:14.902Z,1.30
2022-09-16T06:26:44.421Z,1.20
2022-09-16T06:29:12.932Z,1.42
2022-09-16T06:31:41.510Z,1.35
2022-09-16T06:34:13.902Z,1.58
2022-09-16T06:36:45.036Z,1.50
2022-09-16T06:39:16.295Z,1.30
2022-09-16T06:41:44.578Z,1.60
2022-09-16T06:44:12.228Z,2.00
2022-09-16T06:46:39.887Z,1.40
2022-09-16T06:49:07.489Z,1.52
2022-09-16T06:51:35.764Z,1.70
2022-09-16T06:54:05.600Z,1.73
2022-09-16T06:56:37.465Z,1.50
2022-09-16T06:59:05.245Z,1.40
2022-09-16T07:01:33.742Z,1.75
2022-09-16T07:04:05.280Z,1.70
2022-09-16T07:07:04.852Z,1.50
2022-09-16T07:09:21.087Z,1.67
2022-09-16T07:11:50.121Z,1.40
2022-09-16T07:14:17.864Z,1.60
2022-09-16T07:16:45.522Z,1.52
2022-09-16T07:19:13.243Z,1.30
2022-09-16T07:21:41.575Z,1.60
2022-09-16T07:24:12.099Z,1.40
2022-09-16T07:26:41.225Z,1.38
2022-09-16T07:29:12.774Z,1.30
2022-09-16T07:31:40.765Z,1.20
2022-09-16T07:34:10.992Z,1.13
2022-09-16T07:36:40.762Z,1.10
2022-09-16T07:39:09.504Z,1.13
2022-09-16T07:41:39.752Z,0.93
2022-09-16T07:44:09.645Z,1.05
2022-09-16T07:46:38.717Z,1.05
2022-09-16T07:49:08.539Z,1.00
2022-09-16T07:51:36.674Z,1.00
2022-09-16T07:54:06.707Z,0.82
2022-09-16T07:56:37.398Z,1.27
2022-09-16T07:59:07.817Z,0.93
2022-09-16T08:01:38.868Z,0.95
2022-09-16T08:04:10.324Z,1.00
2022-09-16T08:06:39.963Z,1.10
2022-09-16T08:09:15.606Z,1.20
2022-09-16T08:11:55.644Z,1.10
2022-09-16T08:14:23.352Z,1.00
2022-09-16T08:16:51.629Z,0.90
2022-09-16T08:19:22.533Z,1.00
2022-09-16T08:21:50.253Z,0.98
2022-09-16T08:24:17.812Z,1.10
2022-09-16T08:26:45.472Z,0.90
2022-09-16T08:29:13.355Z,1.00
2022-09-16T08:31:41.277Z,1.00
2022-09-16T08:34:08.878Z,0.85
2022-09-16T08:36:38.194Z,1.30
2022-09-16T08:39:05.772Z,1.10
2022-09-16T08:41:44.460Z,1.10
2022-09-16T08:44:21.218Z,1.10
2022-09-16T08:46:53.712Z,0.90
2022-09-16T08:49:30.935Z,0.98
2022-09-16T08:52:02.825Z,1.17
2022-09-16T08:54:37.175Z,1.00
2022-09-16T08:57:07.480Z,1.10
2022-09-16T08:59:37.764Z,1.00
2022-09-16T09:02:23.737Z,1.42
2022-09-16T09:04:51.852Z,1.00
2022-09-16T09:07:30.160Z,1.20
2022-09-16T09:10:08.539Z,1.42
2022-09-16T09:12:42.361Z,1.38
2022-09-16T09:18:20.149Z,1.30
2022-09-16T09:20:55.396Z,1.08
2022-09-16T09:23:44.342Z,1.20
2022-09-16T09:26:21.158Z,1.13
2022-09-16T09:29:13.091Z,1.33
2022-09-16T09:31:47.620Z,1.20
2022-09-16T09:34:31.406Z,1.52
2022-09-16T09:37:14.367Z,1.30
2022-09-16T09:40:01.572Z,1.30
2022-09-16T09:42:32.392Z,1.10
2022-09-16T09:45:04.736Z,1.58
2022-09-16T09:47:40.872Z,1.35
2022-09-16T09:50:18.530Z,1.15
2022-09-16T09:52:54.219Z,1.70
2022-09-16T09:55:25.988Z,1.10
2022-09-16T09:58:09.578Z,1.30
2022-09-16T10:00:37.287Z,1.15
2022-09-16T10:03:08.121Z,1.35
2022-09-16T10:05:35.694Z,1.70
2022-09-16T10:08:05.833Z,1.30
2022-09-16T10:10:36.201Z,1.50
2022-09-16T10:13:11.403Z,1.48
2022-09-16T10:15:39.446Z,1.48
2022-09-16T10:18:14.207Z,1.38
2022-09-16T10:20:45.180Z,1.35
2022-09-16T10:23:15.189Z,1.27
2022-09-16T10:25:44.630Z,1.80
2022-09-16T10:28:21.084Z,1.45
2022-09-16T10:30:51.702Z,1.25
2022-09-16T10:33:25.059Z,1.38
2022-09-16T10:35:57.849Z,1.30
2022-09-16T10:38:28.250Z,1.15
2022-09-16T10:41:01.999Z,1.48
2022-09-16T10:43:32.066Z,1.40
2022-09-16T10:46:00.238Z,1.30
2022-09-16T10:48:30.432Z,1.23
2022-09-16T10:50:59.867Z,1.70
2022-09-16T10:53:30.807Z,1.25
2022-09-16T10:56:02.433Z,1.30
2022-09-16T10:58:30.110Z,1.25
2022-09-16T11:01:16.358Z,1.33
2022-09-16T11:04:39.804Z,1.10
2022-09-16T11:07:27.533Z,1.15
2022-09-16T11:10:10.869Z,1.38
2022-09-16T11:13:28.730Z,1.40
2022-09-16T11:16:23.517Z,1.40
2022-09-16T11:19:02.188Z,1.10
2022-09-16T11:21:55.757Z,1.10
2022-09-16T11:24:40.220Z,1.30
2022-09-16T11:27:18.224Z,1.10
2022-09-16T11:30:05.305Z,1.40
2022-09-16T11:32:49.937Z,1.30
2022-09-16T11:35:32.264Z,1.10
2022-09-16T11:38:07.008Z,1.20
2022-09-16T11:40:46.817Z,1.25
2022-09-16T11:43:53.657Z,1.17
2022-09-16T11:46:32.017Z,1.00
2022-09-16T11:49:18.396Z,1.20
2022-09-16T11:52:02.240Z,1.20
2022-09-16T11:54:51.579Z,1.23
2022-09-16T11:57:23.819Z,1.25
2022-09-16T11:59:56.035Z,1.10
2022-09-16T12:02:29.103Z,1.50
2022-09-16T12:05:03.010Z,1.05
2022-09-16T12:07:37.503Z,1.20
2022-09-16T12:10:13.971Z,1.00
2022-09-16T12:12:47.099Z,1.10
2022-09-16T12:15:20.885Z,1.20
2022-09-16T12:17:55.063Z,1.25
2022-09-16T12:20:27.291Z,1.27
2022-09-16T12:23:00.290Z,1.20
2022-09-16T12:25:34.276Z,1.15
2022-09-16T12:28:05.209Z,1.50
2022-09-16T12:30:38.769Z,1.15
2022-09-16T12:33:15.366Z,1.10
2022-09-16T12:35:48.613Z,1.30
2022-09-16T12:38:19.277Z,1.35
2022-09-16T12:41:03.611Z,1.20
2022-09-16T12:44:16.712Z,1.20
2022-09-16T12:47:32.037Z,1.10
2022-09-16T12:50:22.108Z,1.40
2022-09-16T12:53:30.726Z,1.08
2022-09-16T12:56:09.387Z,1.00
2022-09-16T12:58:56.717Z,1.33
2022-09-16T13:01:27.340Z,0.98
2022-09-16T13:03:59.551Z,0.90
2022-09-16T13:06:31.007Z,1.10
2022-09-16T13:09:16.220Z,1.00
2022-09-16T13:12:31.848Z,0.93
2022-09-16T13:14:47.384Z,0.90
2022-09-16T13:17:14.999Z,1.10
2022-09-16T13:19:47.922Z,0.90
2022-09-16T13:22:25.342Z,1.10
2022-09-16T13:25:00.640Z,0.77
2022-09-16T13:27:34.452Z,1.00
2022-09-16T13:30:26.513Z,1.23
2022-09-16T13:33:19.888Z,1.08
2022-09-16T13:35:50.163Z,1.35
2022-09-16T13:38:40.349Z,1.10
2022-09-16T13:41:12.018Z,1.10
2022-09-16T13:43:52.779Z,1.10
2022-09-16T13:46:37.377Z,1.30
2022-09-16T13:49:20.664Z,1.60
2022-09-16T13:51:50.768Z,1.42
2022-09-16T13:54:30.137Z,1.50
2022-09-16T13:57:15.495Z,1.85
2022-09-16T14:00:02.156Z,1.58
2022-09-16T14:02:42.833Z,1.45
2022-09-16T14:05:28.608Z,1.73
2022-09-16T14:08:02.729Z,2.00
2022-09-16T14:10:38.438Z,1.55
2022-09-16T14:13:12.137Z,1.83
2022-09-16T14:15:43.259Z,1.63
2022-09-16T14:18:14.370Z,1.55
2022-09-16T14:20:55.237Z,1.97
2022-09-16T14:23:25.519Z,1.45
2022-09-16T14:25:55.487Z,1.70
2022-09-16T14:28:24.992Z,1.52
2022-09-16T14:30:56.379Z,1.35
2022-09-16T14:33:28.577Z,1.20
2022-09-16T14:35:57.468Z,1.50
2022-09-16T14:38:45.587Z,1.60
2022-09-16T14:41:23.736Z,1.52
2022-09-16T14:43:52.312Z,1.50
2022-09-16T14:46:20.499Z,1.27
2022-09-16T14:48:48.813Z,1.23
2022-09-16T14:51:22.564Z,1.40
2022-09-16T14:54:13.623Z,1.40
2022-09-16T14:56:42.791Z,1.33
2022-09-16T14:59:13.275Z,1.20
2022-09-16T15:01:41.301Z,1.60
2022-09-16T15:04:16.514Z,1.58
2022-09-16T15:06:49.153Z,1.75
2022-09-16T15:09:23.742Z,1.48
2022-09-16T15:11:57.529Z,1.42
2022-09-16T15:14:26.750Z,1.95
2022-09-16T15:16:57.276Z,1.27
2022-09-16T15:19:28.329Z,1.50
2022-09-16T15:21:56.472Z,1.30
2022-09-16T15:24:28.806Z,1.83
2022-09-16T15:26:59.028Z,1.40
2022-09-16T15:29:32.724Z,1.38
2022-09-16T15:32:19.296Z,1.40
2022-09-16T15:34:47.029Z,1.90
2022-09-16T15:37:32.850Z,1.40
2022-09-16T15:40:32.504Z,1.60
2022-09-16T15:43:14.630Z,1.35
2022-09-16T15:45:45.352Z,1.30
2022-09-16T15:48:18.243Z,1.27
2022-09-16T15:50:50.134Z,1.20
2022-09-16T15:55:56.670Z,1.20
2022-09-16T15:58:39.391Z,1.40
2022-09-16T16:01:13.231Z,1.23
2022-09-16T16:03:53.177Z,1.30
2022-09-16T16:06:21.255Z,1.10
2022-09-16T16:08:50.991Z,1.23
2022-09-16T16:11:20.079Z,1.48
2022-09-16T16:13:50.085Z,1.40
2022-09-16T16:16:20.216Z,1.27
2022-09-16T16:18:47.961Z,1.40
2022-09-16T16:21:17.475Z,1.17
2022-09-16T16:23:45.563Z,1.50
2022-09-16T16:26:13.198Z,1.42
2022-09-16T16:28:40.767Z,1.50
2022-09-16T16:31:11.827Z,1.48
2022-09-16T16:33:42.539Z,1.27
2022-09-16T16:36:12.401Z,1.20
2022-09-16T16:38:40.355Z,1.30
2022-09-16T16:41:08.289Z,1.13
2022-09-16T16:43:35.974Z,1.10
2022-09-16T16:46:03.716Z,1.20
2022-09-16T16:48:32.708Z,1.30
2022-09-16T16:51:03.436Z,1.20
2022-09-16T16:53:31.700Z,1.25
2022-09-16T16:56:04.667Z,1.30
2022-09-16T16:58:32.304Z,1.30
2022-09-16T17:01:08.323Z,1.30
2022-09-16T17:03:37.531Z,1.10
2022-09-16T17:06:06.839Z,1.33
2022-09-16T17:08:35.275Z,1.40
2022-09-16T17:11:07.781Z,1.35
2022-09-16T17:13:35.386Z,1.35
2022-09-16T17:16:03.546Z,1.58
2022-09-16T17:18:31.151Z,1.55
2022-09-16T17:21:04.538Z,1.30
2022-09-16T17:23:32.371Z,1.58
2022-09-16T17:26:00.483Z,1.58
2022-09-16T17:28:28.536Z,1.88
2022-09-16T17:30:56.450Z,1.70
2022-09-16T17:33:24.316Z,1.60
2022-09-16T17:36:01.586Z,1.70
2022-09-16T17:38:30.951Z,1.88
2022-09-16T17:41:03.415Z,1.50
2022-09-16T17:43:32.693Z,1.73
2022-09-16T17:46:00.944Z,1.88
2022-09-16T17:48:29.296Z,1.75
2022-09-16T17:50:59.199Z,1.70
2022-09-16T17:53:27.130Z,2.03
2022-09-16T17:56:03.102Z,1.45
2022-09-16T17:58:30.860Z,1.60
2022-09-16T18:01:05.153Z,1.80
2022-09-16T18:03:32.826Z,1.70
2022-09-16T18:06:05.242Z,1.50
2022-09-16T18:08:32.895Z,1.58
2022-09-16T18:11:01.985Z,1.75
2022-09-16T18:13:29.742Z,1.75
2022-09-16T18:15:57.524Z,1.60
2022-09-16T18:18:25.132Z,1.80
2022-09-16T18:20:54.186Z,1.70
2022-09-16T18:23:22.639Z,1.88
2022-09-16T18:25:50.712Z,1.83
2022-09-16T18:28:20.150Z,2.08
2022-09-16T18:30:47.739Z,2.10
2022-09-16T18:33:15.368Z,1.90
2022-09-16T18:35:42.961Z,1.80
2022-09-16T18:38:12.843Z,1.75
2022-09-16T18:40:40.442Z,1.88
2022-09-16T18:43:08.061Z,1.80
2022-09-16T18:45:37.001Z,1.85
2022-09-16T18:48:04.776Z,1.80
2022-09-16T18:50:34.458Z,1.98
2022-09-16T18:53:02.065Z,1.63
2022-09-16T18:55:31.261Z,1.45
2022-09-16T18:57:58.831Z,1.77
2022-09-16T19:00:26.600Z,1.85
2022-09-16T19:02:55.801Z,1.45
2022-09-16T19:05:23.367Z,1.52
2022-09-16T19:07:51.087Z,1.33
2022-09-16T19:10:18.751Z,1.17
2022-09-16T19:12:46.452Z,1.33
2022-09-16T19:15:14.890Z,1.60
2022-09-16T19:17:42.515Z,1.63
2022-09-16T19:20:11.829Z,1.38
2022-09-16T19:22:39.384Z,1.30
2022-09-16T19:25:08.120Z,1.80
2022-09-16T19:27:37.159Z,1.30
2022-09-16T19:30:05.625Z,1.25
2022-09-16T19:32:33.205Z,1.40
2022-09-16T19:35:01.072Z,1.25
2022-09-16T19:37:30.290Z,1.30
2022-09-16T19:39:57.862Z,1.35
2022-09-16T19:42:25.618Z,1.45
2022-09-16T19:44:53.198Z,1.20
2022-09-16T19:47:20.927Z,1.40
2022-09-16T19:49:48.513Z,1.15
2022-09-16T19:52:16.049Z,1.42
2022-09-16T19:54:45.324Z,1.20
2022-09-16T19:57:12.893Z,1.30
2022-09-16T19:59:40.677Z,1.38
2022-09-16T20:02:11.088Z,1.20
2022-09-16T20:04:38.748Z,1.20
2022-09-16T20:07:10.213Z,1.17
2022-09-16T20:09:37.795Z,1.33
2022-09-16T20:12:07.339Z,1.20
2022-09-16T20:14:36.300Z,1.20
2022-09-16T20:17:04.200Z,1.48
2022-09-16T20:19:32.419Z,1.20
2022-09-16T20:22:01.393Z,1.40
2022-09-16T20:24:28.990Z,1.10
2022-09-16T20:26:57.235Z,1.70
2022-09-16T20:29:26.445Z,1.40
2022-09-16T20:31:54.295Z,1.40
2022-09-16T20:34:24.050Z,1.40
2022-09-16T20:36:52.047Z,1.13
2022-09-16T20:39:19.716Z,1.20
2022-09-16T20:41:49.745Z,1.00
2022-09-16T20:44:17.583Z,1.60
2022-09-16T20:46:48.086Z,1.30
2022-09-16T20:49:17.797Z,1.30
2022-09-16T20:51:45.939Z,1.30
2022-09-16T20:54:15.449Z,1.63
2022-09-16T20:56:44.825Z,1.63
2022-09-16T20:59:16.345Z,1.45
2022-09-16T21:01:45.948Z,1.52
2022-09-16T21:04:15.869Z,2.20
2022-09-16T21:06:43.577Z,1.42
2022-09-16T21:09:13.541Z,1.30
2022-09-16T21:11:43.556Z,1.33
2022-09-16T21:14:14.947Z,2.22
2022-09-16T21:16:43.497Z,1.80
2022-09-16T21:19:13.251Z,1.70
2022-09-16T21:21:44.018Z,1.45
2022-09-16T21:24:13.006Z,1.75
2022-09-16T21:26:41.259Z,1.60
2022-09-16T21:29:10.948Z,1.40
2022-09-16T21:31:40.974Z,1.33
2022-09-16T21:34:14.834Z,1.50
2022-09-16T21:36:44.240Z,1.40
2022-09-16T21:39:12.903Z,1.42
2022-09-16T21:41:40.504Z,1.65
2022-09-16T21:44:08.150Z,1.67
2022-09-16T21:46:42.878Z,1.50
2022-09-16T21:49:19.081Z,1.60
2022-09-16T21:51:46.974Z,1.45
2022-09-16T21:54:19.633Z,1.75
2022-09-16T21:56:47.725Z,1.38
2022-09-16T21:59:15.675Z,1.33
2022-09-16T22:01:43.474Z,1.90
2022-09-16T22:04:15.494Z,1.83
2022-09-16T22:06:43.725Z,1.50
2022-09-16T22:09:12.781Z,1.42
2022-09-16T22:11:42.087Z,1.42
2022-09-16T22:14:10.992Z,1.80
2022-09-16T22:16:39.853Z,1.75
2022-09-16T22:19:09.427Z,1.95
2022-09-16T22:21:41.132Z,1.50
2022-09-16T22:24:09.492Z,1.52
2022-09-16T22:26:37.897Z,1.50
2022-09-16T22:29:08.851Z,1.27
2022-09-16T22:31:38.512Z,1.50
2022-09-16T22:34:06.648Z,1.50
2022-09-16T22:36:36.495Z,1.27
2022-09-16T22:39:07.919Z,1.50
2022-09-16T22:41:35.620Z,1.63
2022-09-16T22:44:04.019Z,1.50
2022-09-16T22:46:34.298Z,1.20
2022-09-16T22:49:02.408Z,1.42
2022-09-16T22:51:30.059Z,1.58
2022-09-16T22:53:57.720Z,1.50
2022-09-16T22:56:32.004Z,1.65
2022-09-16T22:59:01.448Z,1.73
2022-09-16T23:01:32.067Z,1.52
2022-09-16T23:04:01.804Z,1.40
2022-09-16T23:06:31.191Z,1.40
2022-09-16T23:08:59.201Z,1.38
2022-09-16T23:11:32.499Z,1.60
2022-09-16T23:14:01.054Z,1.40
2022-09-16T23:16:30.734Z,1.30
2022-09-16T23:19:01.357Z,1.48
2022-09-16T23:21:30.189Z,1.60
2022-09-16T23:24:01.535Z,1.50
2022-09-16T23:26:32.767Z,1.17
2022-09-16T23:29:02.889Z,1.80
2022-09-16T23:31:32.959Z,1.55
2022-09-16T23:34:01.701Z,1.55
2022-09-16T23:36:29.474Z,1.60
2022-09-16T23:38:57.495Z,1.20
2022-09-16T23:41:27.209Z,1.20
2022-09-16T23:43:59.394Z,1.50
2022-09-16T23:46:31.030Z,1.30
2022-09-16T23:48:59.247Z,1.92
2022-09-16T23:51:28.886Z,1.60
2022-09-16T23:53:57.532Z,1.30
2022-09-16T23:56:25.581Z,1.50
2022-09-16T23:58:53.130Z,1.55
